Terminal Aerodrome Forecast
Issued by NWS Cleveland, OH

Home | Current Version | Previous Version | Text Only | Print | Product List | Glossary On
Versions: 1 2 3 4 5 6 7 8 9 10 11 12 13 14 15 16 17 18 19 20 21 22 23 24 25 26 27 28 29 30 31 32 33 34 35 36 37
000
FTUS41 KCLE 231300 AAA
TAFYNG
TAF AMD
KYNG 231317Z 2313/2412 05006KT 1 1/2SM BR BKN004
     FM231415 05006KT 3SM BR BKN007
     FM231500 05006KT P6SM BKN015
     FM231800 05008KT P6SM BKN035
     FM240100 07004KT P6SM SCT040
     FM240500 09004KT 4SM BR SCT004
     FM240900 09004KT 1SM BR BKN004=

USA.gov is the U.S. government's official web portal to all federal, state and local government web resources and services.